createdAt,value
2022-11-12T00:00:18.590Z,100665.36
2022-11-12T00:03:13.190Z,100664.40
2022-11-12T00:05:59.600Z,100664.85
2022-11-12T00:08:45.454Z,100666.50
2022-11-12T00:11:30.918Z,100669.70
2022-11-12T00:14:16.370Z,100674.30
2022-11-12T00:17:04.735Z,100677.66
2022-11-12T00:19:52.786Z,100678.24
2022-11-12T00:22:38.309Z,100677.60
2022-11-12T00:25:25.086Z,100675.90
2022-11-12T00:28:11.457Z,100674.91
2022-11-12T00:30:57.467Z,100672.30
2022-11-12T00:33:43.728Z,100671.65
2022-11-12T00:36:31.135Z,100674.70
2022-11-12T00:39:18.818Z,100673.02
2022-11-12T00:42:05.223Z,100677.33
2022-11-12T00:44:51.018Z,100674.59
2022-11-12T00:47:36.396Z,100672.91
2022-11-12T00:50:21.585Z,100675.10
2022-11-12T00:53:07.317Z,100675.20
2022-11-12T00:55:53.281Z,100678.27
2022-11-12T00:58:39.236Z,100680.51
2022-11-12T01:01:25.420Z,100682.90
2022-11-12T01:04:11.247Z,100684.60
2022-11-12T01:06:57.873Z,100687.73
2022-11-12T01:09:43.271Z,100686.84
2022-11-12T01:12:31.704Z,100690.48
2022-11-12T01:15:17.351Z,100694.66
2022-11-12T01:18:03.551Z,100698.16
2022-11-12T01:20:50.162Z,100700.44
2022-11-12T01:23:39.222Z,100701.17
2022-11-12T01:26:27.875Z,100700.86
2022-11-12T01:29:13.555Z,100708.77
2022-11-12T01:31:58.973Z,100707.89
2022-11-12T01:34:45.213Z,100704.05
2022-11-12T01:37:30.902Z,100701.08
2022-11-12T01:40:18.116Z,100698.27
2022-11-12T01:43:09.159Z,100693.50
2022-11-12T01:45:57.215Z,100690.48
2022-11-12T01:48:56.461Z,100693.56
2022-11-12T01:51:50.288Z,100697.50
2022-11-12T01:54:37.061Z,100701.42
2022-11-12T01:57:45.988Z,100703.44
2022-11-12T02:00:31.687Z,100703.70
2022-11-12T02:03:23.100Z,100707.61
2022-11-12T02:06:14.063Z,100704.68
2022-11-12T02:08:59.709Z,100704.20
2022-11-12T02:11:45.623Z,100704.75
2022-11-12T02:14:31.596Z,100709.67
2022-11-12T02:17:19.689Z,100706.03
2022-11-12T02:20:13.087Z,100707.63
2022-11-12T02:22:59.893Z,100709.05
2022-11-12T02:25:46.033Z,100708.19
2022-11-12T02:28:33.125Z,100707.66
2022-11-12T02:31:19.209Z,100703.84
2022-11-12T02:34:05.191Z,100701.58
2022-11-12T02:36:52.263Z,100698.27
2022-11-12T02:39:38.326Z,100690.75
2022-11-12T02:42:23.543Z,100690.94
2022-11-12T02:45:09.757Z,100690.59
2022-11-12T02:47:55.160Z,100691.09
2022-11-12T02:50:42.171Z,100689.30
2022-11-12T02:53:27.427Z,100690.51
2022-11-12T02:56:12.526Z,100688.90
2022-11-12T02:58:58.086Z,100688.19
2022-11-12T03:01:43.333Z,100686.24
2022-11-12T03:04:29.096Z,100684.98
2022-11-12T03:07:14.787Z,100686.37
2022-11-12T03:10:01.015Z,100687.04
2022-11-12T03:12:46.882Z,100687.20
2022-11-12T03:18:49.499Z,100682.58
2022-11-12T03:21:40.061Z,100681.67
2022-11-12T03:27:31.612Z,100679.88
2022-11-12T03:30:18.087Z,100679.49
2022-11-12T03:33:03.665Z,100681.22
2022-11-12T03:35:49.357Z,100678.94
2022-11-12T03:38:34.976Z,100675.27
2022-11-12T03:41:22.899Z,100674.73
2022-11-12T03:44:09.426Z,100674.20
2022-11-12T03:46:56.012Z,100674.23
2022-11-12T03:49:41.119Z,100677.39
2022-11-12T03:52:26.981Z,100674.64
2022-11-12T03:55:15.996Z,100675.43
2022-11-12T03:58:01.756Z,100673.14
2022-11-12T04:00:47.305Z,100672.58
2022-11-12T04:03:34.390Z,100670.12
2022-11-12T04:06:40.653Z,100673.03
2022-11-12T04:09:25.853Z,100677.54
2022-11-12T04:12:29.874Z,100677.82
2022-11-12T04:15:15.539Z,100679.65
2022-11-12T04:18:21.260Z,100680.43
2022-11-12T04:21:27.673Z,100677.55
2022-11-12T04:24:34.009Z,100679.92
2022-11-12T04:27:37.410Z,100680.70
2022-11-12T04:30:23.546Z,100683.41
2022-11-12T04:33:09.126Z,100686.29
2022-11-12T04:35:55.185Z,100685.30
2022-11-12T04:38:41.878Z,100683.27
2022-11-12T04:41:48.578Z,100685.23
2022-11-12T04:44:53.894Z,100685.63
2022-11-12T04:47:43.284Z,100687.13
2022-11-12T04:50:29.202Z,100687.36
2022-11-12T04:53:15.203Z,100689.31
2022-11-12T04:56:01.621Z,100693.51
2022-11-12T04:58:47.087Z,100695.80
2022-11-12T05:01:33.295Z,100694.94
2022-11-12T05:04:19.809Z,100695.13
2022-11-12T05:07:05.293Z,100695.48
2022-11-12T05:09:52.419Z,100700.89
2022-11-12T05:12:38.209Z,100704.41
2022-11-12T05:15:24.106Z,100704.25
2022-11-12T05:18:09.829Z,100701.82
2022-11-12T05:20:55.092Z,100705.13
2022-11-12T05:23:42.121Z,100705.27
2022-11-12T05:26:27.389Z,100705.80
2022-11-12T05:29:13.110Z,100708.04
2022-11-12T05:32:00.143Z,100712.39
2022-11-12T05:34:45.986Z,100709.58
2022-11-12T05:37:31.642Z,100707.64
2022-11-12T05:40:20.991Z,100705.36
2022-11-12T05:43:08.512Z,100704.13
2022-11-12T05:46:19.308Z,100706.55
2022-11-12T05:49:08.844Z,100707.05
2022-11-12T05:51:55.164Z,100713.15
2022-11-12T05:54:41.050Z,100710.88
2022-11-12T05:57:28.041Z,100713.46
2022-11-12T06:00:18.098Z,100716.04
2022-11-12T06:03:05.976Z,100719.48
2022-11-12T06:05:53.217Z,100722.23
2022-11-12T06:08:39.897Z,100719.25
2022-11-12T06:11:25.887Z,100720.20
2022-11-12T06:14:12.669Z,100720.71
2022-11-12T06:17:00.164Z,100726.30
2022-11-12T06:19:49.462Z,100723.34
2022-11-12T06:22:35.776Z,100724.30
2022-11-12T06:25:24.161Z,100723.64
2022-11-12T06:28:12.126Z,100721.89
2022-11-12T06:31:06.372Z,100725.04
2022-11-12T06:34:00.232Z,100728.54
2022-11-12T06:36:48.348Z,100730.11
2022-11-12T06:39:37.166Z,100730.27
2022-11-12T06:42:24.220Z,100733.77
2022-11-12T06:45:10.512Z,100737.41
2022-11-12T06:48:02.198Z,100742.10
2022-11-12T06:54:03.315Z,100747.83
2022-11-12T06:57:05.755Z,100751.82
2022-11-12T06:59:51.934Z,100747.77
2022-11-12T07:02:37.996Z,100748.58
2022-11-12T07:05:24.831Z,100745.39
2022-11-12T07:08:12.714Z,100744.98
2022-11-12T07:11:00.183Z,100747.36
2022-11-12T07:13:48.575Z,100749.73
2022-11-12T07:20:07.804Z,100750.65
2022-11-12T07:23:14.717Z,100748.52
2022-11-12T07:26:33.872Z,100751.27
2022-11-12T07:29:42.591Z,100753.95
2022-11-12T07:32:40.234Z,100754.02
2022-11-12T07:35:30.616Z,100754.27
2022-11-12T07:38:18.819Z,100752.25
2022-11-12T07:41:59.032Z,100753.23
2022-11-12T07:44:44.691Z,100752.27
2022-11-12T07:47:31.978Z,100754.96
2022-11-12T07:50:49.303Z,100757.48
2022-11-12T07:57:01.062Z,100754.91
2022-11-12T07:59:47.984Z,100758.06
2022-11-12T08:02:34.187Z,100760.87
2022-11-12T08:05:21.460Z,100758.97
2022-11-12T08:08:09.300Z,100758.81
2022-11-12T08:10:56.857Z,100764.77
2022-11-12T08:13:43.205Z,100765.80
2022-11-12T08:16:39.028Z,100768.06
2022-11-12T08:19:24.609Z,100774.69
2022-11-12T08:22:13.769Z,100766.23
2022-11-12T08:25:00.826Z,100766.52
2022-11-12T08:27:48.805Z,100766.95
2022-11-12T08:30:47.877Z,100769.27
2022-11-12T08:37:28.901Z,100768.41
2022-11-12T08:40:15.196Z,100766.88
2022-11-12T08:46:37.625Z,100773.46
2022-11-12T08:49:48.159Z,100771.06
2022-11-12T08:52:47.142Z,100771.82
2022-11-12T08:56:01.181Z,100772.93
2022-11-12T08:59:07.050Z,100779.49
2022-11-12T09:08:26.501Z,100765.44
2022-11-12T09:11:13.612Z,100762.69
2022-11-12T09:13:59.323Z,100762.33
2022-11-12T09:17:11.648Z,100767.35
2022-11-12T09:20:01.893Z,100764.16
2022-11-12T09:26:04.804Z,100765.24
2022-11-12T09:28:53.442Z,100762.31
2022-11-12T09:31:39.242Z,100763.37
2022-11-12T09:34:25.895Z,100759.35
2022-11-12T09:37:19.677Z,100759.54
2022-11-12T09:41:03.915Z,100761.05
2022-11-12T09:43:56.565Z,100761.23
2022-11-12T09:46:52.084Z,100758.98
2022-11-12T09:50:02.544Z,100756.88
2022-11-12T09:52:59.247Z,100758.09
2022-11-12T09:55:59.516Z,100761.23
2022-11-12T10:05:23.465Z,100756.42
2022-11-12T10:08:37.798Z,100753.56
2022-11-12T10:12:04.420Z,100744.89
2022-11-12T10:15:30.812Z,100741.70
2022-11-12T10:18:35.713Z,100741.63
2022-11-12T10:25:00.192Z,100736.87
2022-11-12T10:27:46.768Z,100738.65
2022-11-12T10:30:36.089Z,100734.90
2022-11-12T10:33:22.368Z,100733.80
2022-11-12T10:36:36.144Z,100731.21
2022-11-12T10:39:35.151Z,100735.89
2022-11-12T10:42:24.375Z,100734.66
2022-11-12T10:45:21.531Z,100731.42
2022-11-12T10:48:24.468Z,100731.23
2022-11-12T10:51:36.871Z,100732.30
2022-11-12T10:54:38.424Z,100735.55
2022-11-12T10:57:29.643Z,100733.83
2022-11-12T11:00:19.941Z,100736.13
2022-11-12T11:03:24.515Z,100734.54
2022-11-12T11:06:15.987Z,100734.42
2022-11-12T11:09:10.185Z,100736.33
2022-11-12T11:11:56.031Z,100736.26
2022-11-12T11:14:44.125Z,100733.09
2022-11-12T11:17:34.971Z,100733.60
2022-11-12T11:20:26.395Z,100729.18
2022-11-12T11:23:28.561Z,100738.08
2022-11-12T11:26:59.494Z,100733.93
2022-11-12T11:29:54.057Z,100732.27
2022-11-12T11:33:21.069Z,100734.56
2022-11-12T11:36:31.112Z,100735.44
2022-11-12T11:39:22.629Z,100735.19
2022-11-12T11:42:07.897Z,100739.05
2022-11-12T11:44:56.979Z,100735.79
2022-11-12T11:48:02.498Z,100734.45
2022-11-12T11:51:14.051Z,100733.72
2022-11-12T11:54:16.452Z,100730.68
2022-11-12T11:57:11.796Z,100728.31
2022-11-12T12:00:23.398Z,100730.41
2022-11-12T12:03:22.606Z,100725.92
2022-11-12T12:06:17.981Z,100726.62
2022-11-12T12:09:40.782Z,100722.40
2022-11-12T12:12:59.470Z,100718.83
2022-11-12T12:15:58.757Z,100720.31
2022-11-12T12:19:06.419Z,100727.55
2022-11-12T12:21:54.545Z,100721.49
2022-11-12T12:24:56.717Z,100721.45
2022-11-12T12:27:53.562Z,100722.21
2022-11-12T12:30:50.470Z,100713.67
2022-11-12T12:33:49.546Z,100713.46
2022-11-12T12:36:41.753Z,100719.54
2022-11-12T12:39:48.065Z,100717.42
2022-11-12T12:43:02.642Z,100717.41
2022-11-12T12:45:49.387Z,100713.24
2022-11-12T12:48:40.541Z,100712.42
2022-11-12T12:51:32.254Z,100708.52
2022-11-12T12:54:36.128Z,100712.08
2022-11-12T12:57:39.717Z,100712.25
2022-11-12T13:00:39.225Z,100702.66
2022-11-12T13:04:08.329Z,100702.17
2022-11-12T13:06:55.194Z,100707.80
2022-11-12T13:09:41.205Z,100709.76
2022-11-12T13:13:05.279Z,100705.80
2022-11-12T13:15:57.734Z,100708.52
2022-11-12T13:19:11.120Z,100703.30
2022-11-12T13:22:23.575Z,100708.28
2022-11-12T13:25:13.309Z,100713.08
2022-11-12T13:28:31.749Z,100711.91
2022-11-12T13:31:44.668Z,100714.88
2022-11-12T13:35:14.842Z,100709.48
2022-11-12T13:38:12.086Z,100712.80
2022-11-12T13:41:07.801Z,100714.35
2022-11-12T13:43:57.033Z,100713.98
2022-11-12T13:46:47.613Z,100710.51
2022-11-12T13:49:35.289Z,100707.42
2022-11-12T13:52:25.204Z,100712.06
2022-11-12T13:59:38.209Z,100708.02
2022-11-12T14:02:27.101Z,100707.48
2022-11-12T14:05:20.040Z,100702.16
2022-11-12T14:08:14.366Z,100700.80
2022-11-12T14:11:22.024Z,100701.67
2022-11-12T14:14:50.258Z,100698.98
2022-11-12T14:18:14.203Z,100696.50
2022-11-12T14:21:40.239Z,100704.02
2022-11-12T14:26:08.719Z,100703.31
2022-11-12T14:36:15.679Z,100697.11
2022-11-12T14:39:02.013Z,100691.77
2022-11-12T14:41:51.675Z,100683.27
2022-11-12T14:45:02.988Z,100682.44
2022-11-12T14:47:52.037Z,100685.13
2022-11-12T14:50:41.151Z,100690.06
2022-11-12T14:53:39.537Z,100681.61
2022-11-12T15:04:19.048Z,100688.55
2022-11-12T15:07:07.185Z,100681.30
2022-11-12T15:09:54.823Z,100682.71
2022-11-12T15:12:44.335Z,100678.67
2022-11-12T15:15:34.119Z,100683.95
2022-11-12T15:18:28.047Z,100680.42
2022-11-12T15:21:33.812Z,100681.52
2022-11-12T15:24:44.703Z,100684.67
2022-11-12T15:27:51.945Z,100692.52
2022-11-12T15:31:08.800Z,100693.66
2022-11-12T15:34:29.120Z,100696.58
2022-11-12T15:37:19.809Z,100697.42
2022-11-12T15:40:12.790Z,100700.98
2022-11-12T15:43:02.699Z,100702.98
2022-11-12T15:45:55.913Z,100702.33
2022-11-12T15:48:44.108Z,100702.80
2022-11-12T15:51:33.026Z,100702.33
2022-11-12T15:54:23.932Z,100708.00
2022-11-12T15:57:23.650Z,100712.42
2022-11-12T16:00:35.038Z,100717.02
2022-11-12T16:03:23.091Z,100717.92
2022-11-12T16:06:12.228Z,100718.11
2022-11-12T16:08:58.792Z,100719.54
2022-11-12T16:11:58.644Z,100710.78
2022-11-12T16:14:45.086Z,100714.16
2022-11-12T16:17:37.662Z,100717.91
2022-11-12T16:20:30.440Z,100720.02
2022-11-12T16:23:25.393Z,100722.31
2022-11-12T16:26:24.766Z,100725.79
2022-11-12T16:29:15.077Z,100728.05
2022-11-12T16:32:03.562Z,100726.09
2022-11-12T16:35:01.091Z,100731.65
2022-11-12T16:37:52.062Z,100735.45
2022-11-12T16:40:43.310Z,100738.04
2022-11-12T16:43:32.110Z,100743.61
2022-11-12T16:46:35.476Z,100745.30
2022-11-12T16:49:23.818Z,100742.80
2022-11-12T16:52:11.648Z,100746.06
2022-11-12T16:55:04.092Z,100750.17
2022-11-12T16:57:51.846Z,100749.20
2022-11-12T17:00:39.159Z,100756.29
2022-11-12T17:03:28.949Z,100753.53
2022-11-12T17:06:23.795Z,100755.90
2022-11-12T17:09:25.340Z,100751.38
2022-11-12T17:12:27.199Z,100750.38
2022-11-12T17:15:14.793Z,100753.61
2022-11-12T17:18:03.549Z,100755.58
2022-11-12T17:20:55.346Z,100758.61
2022-11-12T17:23:45.062Z,100761.13
2022-11-12T17:26:36.274Z,100759.60
2022-11-12T17:29:25.072Z,100758.61
2022-11-12T17:32:11.823Z,100758.46
2022-11-12T17:35:01.609Z,100754.63
2022-11-12T17:37:58.699Z,100755.54
2022-11-12T17:40:47.912Z,100756.11
2022-11-12T17:43:41.033Z,100752.80
2022-11-12T17:46:29.994Z,100753.86
2022-11-12T17:49:18.659Z,100751.44
2022-11-12T17:52:05.200Z,100756.92
2022-11-12T17:54:56.069Z,100757.69
2022-11-12T17:57:48.957Z,100755.45
2022-11-12T18:00:38.988Z,100758.84
2022-11-12T18:03:28.889Z,100764.69
2022-11-12T18:06:22.542Z,100762.80
2022-11-12T18:09:15.174Z,100758.45
2022-11-12T18:12:03.753Z,100755.12
2022-11-12T18:14:52.148Z,100754.90
2022-11-12T18:17:40.349Z,100756.79
2022-11-12T18:20:27.012Z,100756.89
2022-11-12T18:23:18.607Z,100760.48
2022-11-12T18:26:07.680Z,100759.70
2022-11-12T18:29:04.065Z,100762.73
2022-11-12T18:32:03.914Z,100761.08
2022-11-12T18:34:52.229Z,100758.33
2022-11-12T18:37:39.924Z,100757.52
2022-11-12T18:40:31.472Z,100760.19
2022-11-12T18:43:26.767Z,100756.58
2022-11-12T18:46:24.709Z,100761.05
2022-11-12T18:49:14.175Z,100761.65
2022-11-12T18:52:07.987Z,100763.11
2022-11-12T18:54:56.064Z,100764.38
2022-11-12T18:57:43.428Z,100760.92
2022-11-12T19:00:31.845Z,100762.08
2022-11-12T19:03:18.336Z,100759.35
2022-11-12T19:06:07.435Z,100758.89
2022-11-12T19:09:00.934Z,100756.33
2022-11-12T19:11:48.678Z,100754.82
2022-11-12T19:14:37.029Z,100753.52
2022-11-12T19:17:30.596Z,100752.05
2022-11-12T19:20:20.024Z,100753.23
2022-11-12T19:23:08.086Z,100754.04
2022-11-12T19:26:03.182Z,100757.65
2022-11-12T19:28:50.949Z,100748.46
2022-11-12T19:31:38.011Z,100746.12
2022-11-12T19:34:25.043Z,100748.34
2022-11-12T19:40:22.728Z,100742.94
2022-11-12T19:43:10.305Z,100741.50
2022-11-12T19:45:56.923Z,100738.84
2022-11-12T19:48:46.269Z,100740.23
2022-11-12T19:51:33.732Z,100737.60
2022-11-12T19:54:21.862Z,100737.62
2022-11-12T19:57:12.399Z,100740.27
2022-11-12T19:59:59.677Z,100735.57
2022-11-12T20:02:48.083Z,100734.51
2022-11-12T20:05:36.861Z,100730.14
2022-11-12T20:08:25.224Z,100729.63
2022-11-12T20:11:13.878Z,100731.22
2022-11-12T20:14:00.825Z,100726.83
2022-11-12T20:16:49.680Z,100726.49
2022-11-12T20:19:39.852Z,100734.05
2022-11-12T20:22:32.046Z,100729.18
2022-11-12T20:25:19.514Z,100728.17
2022-11-12T20:28:07.507Z,100729.23
2022-11-12T20:31:01.814Z,100728.52
2022-11-12T20:33:51.307Z,100730.45
2022-11-12T20:36:45.753Z,100730.79
2022-11-12T20:39:33.665Z,100726.02
2022-11-12T20:42:20.107Z,100725.91
2022-11-12T20:45:08.528Z,100728.41
2022-11-12T20:47:59.013Z,100724.73
2022-11-12T20:51:09.367Z,100719.81
2022-11-12T20:53:59.495Z,100718.20
2022-11-12T20:56:51.660Z,100717.69
2022-11-12T20:59:42.983Z,100718.02
2022-11-12T21:02:33.766Z,100723.61
2022-11-12T21:05:20.894Z,100722.34
2022-11-12T21:08:07.622Z,100717.95
2022-11-12T21:10:56.249Z,100714.27
2022-11-12T21:13:43.824Z,100711.64
2022-11-12T21:16:32.854Z,100710.09
2022-11-12T21:19:19.437Z,100711.95
2022-11-12T21:22:07.412Z,100711.48
2022-11-12T21:24:55.814Z,100705.61
2022-11-12T21:27:48.525Z,100707.88
2022-11-12T21:30:36.473Z,100707.66
2022-11-12T21:33:26.808Z,100699.02
2022-11-12T21:36:16.704Z,100699.50
2022-11-12T21:39:06.104Z,100699.63
2022-11-12T21:41:55.097Z,100701.34
2022-11-12T21:44:42.356Z,100699.35
2022-11-12T21:47:29.240Z,100694.23
2022-11-12T21:50:17.064Z,100693.19
2022-11-12T21:53:03.744Z,100698.42
2022-11-12T21:55:50.378Z,100692.45
2022-11-12T21:58:38.013Z,100689.84
2022-11-12T22:01:26.153Z,100688.98
2022-11-12T22:04:17.969Z,100685.79
2022-11-12T22:07:06.232Z,100682.24
2022-11-12T22:09:56.856Z,100676.63
2022-11-12T22:13:04.995Z,100679.23
2022-11-12T22:15:51.342Z,100681.48
2022-11-12T22:18:39.280Z,100682.68
2022-11-12T22:21:30.667Z,100681.08
2022-11-12T22:24:18.516Z,100677.73
2022-11-12T22:27:06.080Z,100674.35
2022-11-12T22:29:54.227Z,100676.56
2022-11-12T22:32:40.920Z,100680.38
2022-11-12T22:35:27.602Z,100678.41
2022-11-12T22:38:14.518Z,100675.77
2022-11-12T22:41:06.947Z,100674.69
2022-11-12T22:43:58.031Z,100669.42
2022-11-12T22:46:44.697Z,100666.25
2022-11-12T22:49:31.344Z,100664.65
2022-11-12T22:52:18.291Z,100668.82
2022-11-12T22:55:06.392Z,100669.66
2022-11-12T22:57:53.073Z,100666.48
2022-11-12T23:00:40.779Z,100657.16
2022-11-12T23:03:31.215Z,100655.73
2022-11-12T23:06:20.596Z,100651.48
2022-11-12T23:09:08.121Z,100657.81
2022-11-12T23:11:57.212Z,100654.79
2022-11-12T23:14:45.010Z,100647.75
2022-11-12T23:17:31.802Z,100645.27
2022-11-12T23:20:18.668Z,100635.47
2022-11-12T23:23:06.358Z,100633.58
2022-11-12T23:25:52.836Z,100639.00
2022-11-12T23:28:39.647Z,100638.96
2022-11-12T23:31:30.415Z,100641.40
2022-11-12T23:34:16.999Z,100639.77
2022-11-12T23:37:04.801Z,100636.80
2022-11-12T23:39:51.703Z,100641.33
2022-11-12T23:42:38.207Z,100639.33
2022-11-12T23:45:24.968Z,100643.73
2022-11-12T23:48:11.884Z,100642.34
2022-11-12T23:51:22.034Z,100645.66
2022-11-12T23:54:10.101Z,100645.48
2022-11-12T23:56:56.735Z,100642.87
2022-11-12T23:59:43.499Z,100645.38
